METAR AND TAF INFORMATION
METAR FOR KIFP
ADDS - METARS form results

(1152 UTC 19 May 2019)
Data provider http://aviationweather.gov/metar/data/
 
METAR text: KIFP 191135Z AUTO 15020G25KT 10SM CLR 24/M00 A2963 RMK AO2
Conditions at: KIFP (BULLHEAD CITY , AZ, US) observed 1135 UTC 19 May 2019
Temperature: 24.0°C (75°F)
Dewpoint: 0.0°C (32°F) [RH = 20%]
Pressure (altimeter): 29.63 inches Hg (1003.5 mb)
Winds: from the SSE (150 degrees) at 23 MPH (20 knots; 10.3 m/s)
gusting to 29 MPH (25 knots; 12.9 m/s)
Visibility: 10 or more miles (16+ km)
Ceiling: at least 12,000 feet AGL
Clouds: sky clear below 12,000 feet AGL
Weather: automated observation with no human augmentation;
there may or may not be significant weather present at this time

METAR text: KIFP 191115Z AUTO 15019KT 10SM FEW100 FEW120 24/M01 A2963 RMK AO2
Conditions at: KIFP (BULLHEAD CITY , AZ, US) observed 1115 UTC 19 May 2019
Temperature: 24.0°C (75°F)
Dewpoint: -1.0°C (30°F) [RH = 19%]
Pressure (altimeter): 29.63 inches Hg (1003.5 mb)
Winds: from the SSE (150 degrees) at 22 MPH (19 knots; 9.8 m/s)
Visibility: 10 or more miles (16+ km)
Ceiling: at least 12,000 feet AGL
Clouds: few clouds at 10000 feet AGL
few clouds at 12000 feet AGL
Weather: automated observation with no human augmentation;
there may or may not be significant weather present at this time

METAR text: KIFP 191055Z AUTO 18010KT 10SM BKN120 24/M01 A2965 RMK AO2
Conditions at: KIFP (BULLHEAD CITY , AZ, US) observed 1055 UTC 19 May 2019
Temperature: 24.0°C (75°F)
Dewpoint: -1.0°C (30°F) [RH = 19%]
Pressure (altimeter): 29.65 inches Hg (1004.1 mb)
Winds: from the S (180 degrees) at 12 MPH (10 knots; 5.1 m/s)
Visibility: 10 or more miles (16+ km)
Ceiling: 12000 feet AGL
Clouds: broken clouds at 12000 feet AGL
Weather: automated observation with no human augmentation;
there may or may not be significant weather present at this time

Forecast for: KIFP (BULLHEAD CITY , AZ, US)
Text: KIFP 191129Z 1912/2012 17017KT P6SM BKN100
Forecast period: 1200 to 1800 UTC 19 May 2019
Forecast type: FROM: standard forecast or significant change
Winds: from the S (170 degrees) at 20 MPH (17 knots; 8.7 m/s)
Visibility: 6 or more miles 10+ km)
Ceiling: 10000 feet AGL
Clouds: broken clouds at 10000 feet AGL
Weather: no significant weather forecast for this period
Text: FM191800 20018G26KT P6SM BKN100
Forecast period: 1800 to 2300 UTC 19 May 2019
Forecast type: FROM: standard forecast or significant change
Winds: from the SSW (200 degrees) at 21 MPH (18 knots; 9.3 m/s)
gusting to 30 MPH (26 knots; 13.4 m/s)
Visibility: 6 or more miles 10+ km)
Ceiling: 10000 feet AGL
Clouds: broken clouds at 10000 feet AGL
Weather: no significant weather forecast for this period
Text: FM192300 19015KT P6SM BKN100
Forecast period: 2300 UTC 19 May 2019 to 0500 UTC 20 May 2019
Forecast type: FROM: standard forecast or significant change
Winds: from the S (190 degrees) at 17 MPH (15 knots; 7.7 m/s)
Visibility: 6 or more miles 10+ km)
Ceiling: 10000 feet AGL
Clouds: broken clouds at 10000 feet AGL
Weather: no significant weather forecast for this period
Text: FM200500 19010KT P6SM BKN100
Forecast period: 0500 to 1200 UTC 20 May 2019
Forecast type: FROM: standard forecast or significant change
Winds: from the S (190 degrees) at 12 MPH (10 knots; 5.1 m/s)
Visibility: 6 or more miles 10+ km)
Ceiling: 10000 feet AGL
Clouds: broken clouds at 10000 feet AGL
Weather: no significant weather forecast for this period

 AIRPORT MAP

 RUNWAY INFORMATION
Runway 16 Runway length 7520 ft Runway width 150 ft
Runway elevation 622 ft Runway displaced threshold 0 ft Runway heading 177
Runway 34 Runway length 7520 ft Runway width 150 ft
Runway elevation 695 ft Runway displaced threshold 0 ft Runway heading 357

 AIRPORT FREQUENCIES
Type CLD Name LA CNTR CL Frequency 118.25 MHZ
Type CNTR Name LOS ANGELE Frequency 134.65 MHZ
Type CTAF Name CTAF Frequency 123.9 MHZ
Type GND Name GND Frequency 118.25 MHZ
Type TWR Name BULLHEAD T Frequency 123.9 MHZ

 AIRPORT NEAR NAVIGATION AIDS



Powered by Virtual Airlines Manager [v2.6.2]